sensor_id;sensor_type;location;lat;lon;timestamp;pressure;altitude;pressure_sealevel;temperature;humidity
47154;BME280;32907;41.412;2.164;2023-05-21T00:02:04;100049.50;;;21.16;43.76
47154;BME280;32907;41.412;2.164;2023-05-21T00:04:35;100045.34;;;21.18;43.72
47154;BME280;32907;41.412;2.164;2023-05-21T00:07:05;99910.84;;;20.33;43.86
47154;BME280;32907;41.412;2.164;2023-05-21T00:09:36;100094.56;;;21.58;44.51
47154;BME280;32907;41.412;2.164;2023-05-21T00:12:12;100170.44;;;22.01;43.93
47154;BME280;32907;41.412;2.164;2023-05-21T00:14:40;100195.59;;;22.20;44.32
47154;BME280;32907;41.412;2.164;2023-05-21T00:17:13;100025.75;;;21.16;44.16
47154;BME280;32907;41.412;2.164;2023-05-21T00:19:45;100196.72;;;22.19;44.65
47154;BME280;32907;41.412;2.164;2023-05-21T00:22:25;100040.38;;;21.20;43.99
47154;BME280;32907;41.412;2.164;2023-05-21T00:24:54;100189.66;;;22.18;44.17
47154;BME280;32907;41.412;2.164;2023-05-21T00:27:25;99930.69;;;20.48;44.17
47154;BME280;32907;41.412;2.164;2023-05-21T00:29:54;99912.94;;;20.36;44.45
47154;BME280;32907;41.412;2.164;2023-05-21T00:32:23;99917.97;;;20.43;44.22
47154;BME280;32907;41.412;2.164;2023-05-21T00:34:53;99918.25;;;20.55;44.62
47154;BME280;32907;41.412;2.164;2023-05-21T00:37:27;99979.72;;;20.92;44.63
47154;BME280;32907;41.412;2.164;2023-05-21T00:40:04;99997.88;;;20.97;44.47
47154;BME280;32907;41.412;2.164;2023-05-21T00:42:36;100153.91;;;22.06;44.58
47154;BME280;32907;41.412;2.164;2023-05-21T00:45:11;99956.84;;;20.71;44.70
47154;BME280;32907;41.412;2.164;2023-05-21T00:47:43;99922.59;;;20.56;44.55
47154;BME280;32907;41.412;2.164;2023-05-21T00:50:17;100148.66;;;22.10;44.63
47154;BME280;32907;41.412;2.164;2023-05-21T00:52:53;100163.72;;;22.07;44.89
47154;BME280;32907;41.412;2.164;2023-05-21T00:55:30;100106.50;;;21.71;44.66
47154;BME280;32907;41.412;2.164;2023-05-21T00:58:01;100027.00;;;21.10;44.73
47154;BME280;32907;41.412;2.164;2023-05-21T01:00:35;99937.50;;;20.59;44.53
47154;BME280;32907;41.412;2.164;2023-05-21T01:03:04;99875.69;;;20.23;44.62
47154;BME280;32907;41.412;2.164;2023-05-21T01:05:43;99880.72;;;20.30;44.57
47154;BME280;32907;41.412;2.164;2023-05-21T01:08:13;100056.31;;;21.49;44.47
47154;BME280;32907;41.412;2.164;2023-05-21T01:10:45;99900.25;;;20.46;44.69
47154;BME280;32907;41.412;2.164;2023-05-21T01:13:14;99912.50;;;20.57;44.54
47154;BME280;32907;41.412;2.164;2023-05-21T01:15:44;100052.59;;;21.45;44.63
47154;BME280;32907;41.412;2.164;2023-05-21T01:18:14;99935.84;;;20.72;44.66
47154;BME280;32907;41.412;2.164;2023-05-21T01:20:50;100047.31;;;21.49;44.61
47154;BME280;32907;41.412;2.164;2023-05-21T01:23:20;99995.84;;;21.03;44.76
47154;BME280;32907;41.412;2.164;2023-05-21T01:25:49;100120.28;;;21.97;44.54
47154;BME280;32907;41.412;2.164;2023-05-21T01:28:17;100143.34;;;22.13;44.49
47154;BME280;32907;41.412;2.164;2023-05-21T01:30:47;100145.28;;;22.13;44.28
47154;BME280;32907;41.412;2.164;2023-05-21T01:33:21;100045.38;;;21.49;44.46
47154;BME280;32907;41.412;2.164;2023-05-21T01:39:01;99943.69;;;20.73;44.45
47154;BME280;32907;41.412;2.164;2023-05-21T01:41:46;100057.44;;;21.48;44.99
47154;BME280;32907;41.412;2.164;2023-05-21T01:44:24;100160.78;;;22.03;44.66
47154;BME280;32907;41.412;2.164;2023-05-21T01:46:56;100121.25;;;21.92;44.71
47154;BME280;32907;41.412;2.164;2023-05-21T01:49:33;99882.28;;;20.45;45.06
47154;BME280;32907;41.412;2.164;2023-05-21T01:52:03;99929.72;;;20.66;44.81
47154;BME280;32907;41.412;2.164;2023-05-21T01:54:34;100137.03;;;22.04;45.00
47154;BME280;32907;41.412;2.164;2023-05-21T01:57:03;99877.84;;;20.35;44.92
47154;BME280;32907;41.412;2.164;2023-05-21T01:59:32;99882.88;;;20.42;44.95
47154;BME280;32907;41.412;2.164;2023-05-21T02:02:03;100130.75;;;22.03;44.84
47154;BME280;32907;41.412;2.164;2023-05-21T02:04:32;99867.97;;;20.39;45.15
47154;BME280;32907;41.412;2.164;2023-05-21T02:07:01;100014.19;;;21.33;45.25
47154;BME280;32907;41.412;2.164;2023-05-21T02:09:32;100021.88;;;21.31;45.09
47154;BME280;32907;41.412;2.164;2023-05-21T02:12:02;99850.63;;;20.35;44.56
47154;BME280;32907;41.412;2.164;2023-05-21T02:14:30;99948.03;;;20.97;45.09
47154;BME280;32907;41.412;2.164;2023-05-21T02:17:01;99936.13;;;20.92;44.92
47154;BME280;32907;41.412;2.164;2023-05-21T02:19:29;99847.31;;;20.38;44.75
47154;BME280;32907;41.412;2.164;2023-05-21T02:21:58;99868.91;;;20.57;44.64
47154;BME280;32907;41.412;2.164;2023-05-21T02:24:27;100103.84;;;22.11;44.58
47154;BME280;32907;41.412;2.164;2023-05-21T02:26:56;99846.59;;;20.46;45.05
47154;BME280;32907;41.412;2.164;2023-05-21T02:29:25;99946.97;;;21.06;44.71
47154;BME280;32907;41.412;2.164;2023-05-21T02:31:54;99926.84;;;20.93;44.93
47154;BME280;32907;41.412;2.164;2023-05-21T02:34:26;99843.06;;;20.46;45.09
47154;BME280;32907;41.412;2.164;2023-05-21T02:36:58;99793.09;;;20.05;45.02
47154;BME280;32907;41.412;2.164;2023-05-21T02:39:26;99830.44;;;20.36;45.20
47154;BME280;32907;41.412;2.164;2023-05-21T02:41:58;99818.38;;;20.28;44.95
47154;BME280;32907;41.412;2.164;2023-05-21T02:44:27;100112.03;;;22.11;44.67
47154;BME280;32907;41.412;2.164;2023-05-21T02:46:58;99827.56;;;20.32;45.01
47154;BME280;32907;41.412;2.164;2023-05-21T02:49:29;99968.53;;;21.25;45.16
47154;BME280;32907;41.412;2.164;2023-05-21T02:51:58;99917.56;;;20.94;44.71
47154;BME280;32907;41.412;2.164;2023-05-21T02:54:29;100007.16;;;21.41;44.61
47154;BME280;32907;41.412;2.164;2023-05-21T02:57:00;100112.34;;;22.09;44.44
47154;BME280;32907;41.412;2.164;2023-05-21T02:59:28;99960.59;;;21.29;44.47
47154;BME280;32907;41.412;2.164;2023-05-21T03:01:58;100091.63;;;22.08;44.60
47154;BME280;32907;41.412;2.164;2023-05-21T03:04:27;100024.94;;;21.61;45.01
47154;BME280;32907;41.412;2.164;2023-05-21T03:06:56;99949.69;;;21.06;44.68
47154;BME280;32907;41.412;2.164;2023-05-21T03:09:28;100085.38;;;22.08;44.50
47154;BME280;32907;41.412;2.164;2023-05-21T03:11:58;99849.59;;;20.45;44.87
47154;BME280;32907;41.412;2.164;2023-05-21T03:14:26;99892.63;;;20.79;44.64
47154;BME280;32907;41.412;2.164;2023-05-21T03:16:56;99930.88;;;20.96;44.81
47154;BME280;32907;41.412;2.164;2023-05-21T03:19:25;99822.44;;;20.31;45.41
47154;BME280;32907;41.412;2.164;2023-05-21T03:21:55;99927.47;;;20.90;45.07
47154;BME280;32907;41.412;2.164;2023-05-21T03:24:26;99801.44;;;20.31;45.20
47154;BME280;32907;41.412;2.164;2023-05-21T03:26:55;99833.84;;;20.42;45.02
47154;BME280;32907;41.412;2.164;2023-05-21T03:29:24;99878.69;;;20.80;44.95
47154;BME280;32907;41.412;2.164;2023-05-21T03:31:54;100009.53;;;21.65;45.35
47154;BME280;32907;41.412;2.164;2023-05-21T03:34:25;99906.78;;;20.89;45.30
47154;BME280;32907;41.412;2.164;2023-05-21T03:36:54;99971.84;;;21.36;45.60
47154;BME280;32907;41.412;2.164;2023-05-21T03:39:23;100087.03;;;21.95;45.44
47154;BME280;32907;41.412;2.164;2023-05-21T03:41:54;99936.63;;;20.94;45.33
47154;BME280;32907;41.412;2.164;2023-05-21T03:44:34;100069.38;;;21.92;45.58
47154;BME280;32907;41.412;2.164;2023-05-21T03:47:19;99974.91;;;21.34;45.27
47154;BME280;32907;41.412;2.164;2023-05-21T03:49:48;99910.63;;;20.88;45.52
47154;BME280;32907;41.412;2.164;2023-05-21T03:52:17;99943.69;;;20.95;45.50
47154;BME280;32907;41.412;2.164;2023-05-21T03:54:46;99882.16;;;20.72;45.59
47154;BME280;32907;41.412;2.164;2023-05-21T03:57:15;99846.44;;;20.51;45.51
47154;BME280;32907;41.412;2.164;2023-05-21T03:59:46;99814.06;;;20.27;45.58
47154;BME280;32907;41.412;2.164;2023-05-21T04:02:14;100058.22;;;21.80;45.26
47154;BME280;32907;41.412;2.164;2023-05-21T04:04:44;99892.31;;;20.58;45.71
47154;BME280;32907;41.412;2.164;2023-05-21T04:07:15;99841.41;;;20.22;45.59
47154;BME280;32907;41.412;2.164;2023-05-21T04:09:46;100104.88;;;21.92;45.56
47154;BME280;32907;41.412;2.164;2023-05-21T04:12:15;99977.34;;;21.22;44.70
47154;BME280;32907;41.412;2.164;2023-05-21T04:14:45;100104.66;;;21.89;44.72
47154;BME280;32907;41.412;2.164;2023-05-21T04:17:16;100001.25;;;21.25;44.05
47154;BME280;32907;41.412;2.164;2023-05-21T04:19:46;99841.28;;;20.27;44.50
47154;BME280;32907;41.412;2.164;2023-05-21T04:22:15;99841.69;;;20.21;44.42
47154;BME280;32907;41.412;2.164;2023-05-21T04:24:44;99845.06;;;20.18;44.51
47154;BME280;32907;41.412;2.164;2023-05-21T04:27:18;99763.75;;;19.80;44.20
47154;BME280;32907;41.412;2.164;2023-05-21T04:29:46;99945.84;;;20.85;44.20
47154;BME280;32907;41.412;2.164;2023-05-21T04:32:18;99858.72;;;20.26;44.66
47154;BME280;32907;41.412;2.164;2023-05-21T04:34:50;99841.28;;;20.27;44.21
47154;BME280;32907;41.412;2.164;2023-05-21T04:37:19;100119.44;;;21.88;44.22
47154;BME280;32907;41.412;2.164;2023-05-21T04:39:47;99833.38;;;20.17;44.26
47154;BME280;32907;41.412;2.164;2023-05-21T04:42:17;99958.50;;;21.03;44.26
47154;BME280;32907;41.412;2.164;2023-05-21T04:44:46;100088.13;;;21.85;44.11
47154;BME280;32907;41.412;2.164;2023-05-21T04:47:19;99831.56;;;20.12;43.78
47154;BME280;32907;41.412;2.164;2023-05-21T04:49:48;100111.84;;;21.76;43.86
47154;BME280;32907;41.412;2.164;2023-05-21T04:52:18;99942.91;;;20.73;43.88
47154;BME280;32907;41.412;2.164;2023-05-21T04:54:50;99805.22;;;19.99;43.39
47154;BME280;32907;41.412;2.164;2023-05-21T04:57:20;99968.97;;;21.10;43.55
47154;BME280;32907;41.412;2.164;2023-05-21T04:59:51;99967.16;;;21.05;43.77
47154;BME280;32907;41.412;2.164;2023-05-21T05:02:23;100100.28;;;21.79;43.43
47154;BME280;32907;41.412;2.164;2023-05-21T05:04:51;99957.19;;;21.01;43.47
47154;BME280;32907;41.412;2.164;2023-05-21T05:07:26;99955.19;;;20.92;43.62
47154;BME280;32907;41.412;2.164;2023-05-21T05:09:55;99876.53;;;20.46;43.21
47154;BME280;32907;41.412;2.164;2023-05-21T05:12:24;99915.59;;;20.64;43.46
47154;BME280;32907;41.412;2.164;2023-05-21T05:14:53;99881.06;;;20.37;43.55
47154;BME280;32907;41.412;2.164;2023-05-21T05:17:21;100094.66;;;21.75;43.73
47154;BME280;32907;41.412;2.164;2023-05-21T05:19:54;99959.31;;;20.81;43.75
47154;BME280;32907;41.412;2.164;2023-05-21T05:22:25;99831.75;;;20.16;43.52
47154;BME280;32907;41.412;2.164;2023-05-21T05:24:54;99921.28;;;20.76;43.38
47154;BME280;32907;41.412;2.164;2023-05-21T05:27:23;100029.06;;;21.27;43.12
47154;BME280;32907;41.412;2.164;2023-05-21T05:29:55;99841.03;;;20.15;43.33
47154;BME280;32907;41.412;2.164;2023-05-21T05:32:23;99954.16;;;20.80;43.27
47154;BME280;32907;41.412;2.164;2023-05-21T05:34:52;99935.41;;;20.78;43.45
47154;BME280;32907;41.412;2.164;2023-05-21T05:37:21;100008.63;;;21.24;43.44
47154;BME280;32907;41.412;2.164;2023-05-21T05:39:49;99844.75;;;20.19;43.54
47154;BME280;32907;41.412;2.164;2023-05-21T05:42:21;99925.59;;;20.77;43.34
47154;BME280;32907;41.412;2.164;2023-05-21T05:44:50;99951.75;;;20.78;43.26
47154;BME280;32907;41.412;2.164;2023-05-21T05:47:19;99849.81;;;20.12;43.08
47154;BME280;32907;41.412;2.164;2023-05-21T05:49:50;99932.47;;;20.52;43.29
47154;BME280;32907;41.412;2.164;2023-05-21T05:52:19;100092.75;;;21.76;43.48
47154;BME280;32907;41.412;2.164;2023-05-21T05:54:48;100116.34;;;21.81;43.26
47154;BME280;32907;41.412;2.164;2023-05-21T05:57:17;100055.22;;;21.50;43.46
47154;BME280;32907;41.412;2.164;2023-05-21T05:59:48;99852.34;;;20.08;43.35
47154;BME280;32907;41.412;2.164;2023-05-21T06:02:19;99847.97;;;20.21;43.42
47154;BME280;32907;41.412;2.164;2023-05-21T06:04:55;99898.00;;;20.48;43.48
47154;BME280;32907;41.412;2.164;2023-05-21T06:07:26;99940.06;;;20.78;43.62
47154;BME280;32907;41.412;2.164;2023-05-21T06:10:07;99845.53;;;20.20;43.37
47154;BME280;32907;41.412;2.164;2023-05-21T06:12:38;99825.44;;;20.07;43.36
47154;BME280;32907;41.412;2.164;2023-05-21T06:15:08;99939.44;;;20.81;43.49
47154;BME280;32907;41.412;2.164;2023-05-21T06:17:45;99853.72;;;20.20;43.37
47154;BME280;32907;41.412;2.164;2023-05-21T06:20:19;100104.50;;;21.85;43.36
47154;BME280;32907;41.412;2.164;2023-05-21T06:23:02;100076.81;;;21.69;43.10
47154;BME280;32907;41.412;2.164;2023-05-21T06:25:33;99954.59;;;20.73;43.15
47154;BME280;32907;41.412;2.164;2023-05-21T06:28:03;100007.56;;;21.26;43.17
47154;BME280;32907;41.412;2.164;2023-05-21T06:30:32;100114.31;;;21.86;43.26
47154;BME280;32907;41.412;2.164;2023-05-21T06:33:01;99924.31;;;20.75;43.52
47154;BME280;32907;41.412;2.164;2023-05-21T06:35:30;99956.19;;;20.97;43.38
47154;BME280;32907;41.412;2.164;2023-05-21T06:38:05;99889.34;;;20.46;43.33
47154;BME280;32907;41.412;2.164;2023-05-21T06:40:39;100021.69;;;21.28;43.15
47154;BME280;32907;41.412;2.164;2023-05-21T06:43:13;99957.50;;;20.99;43.45
47154;BME280;32907;41.412;2.164;2023-05-21T06:45:59;99882.69;;;20.38;43.50
47154;BME280;32907;41.412;2.164;2023-05-21T06:48:37;99945.06;;;20.84;43.30
47154;BME280;32907;41.412;2.164;2023-05-21T06:51:05;99950.50;;;20.84;43.39
47154;BME280;32907;41.412;2.164;2023-05-21T06:53:33;100027.81;;;21.33;43.25
47154;BME280;32907;41.412;2.164;2023-05-21T06:56:03;99941.84;;;20.82;43.05
47154;BME280;32907;41.412;2.164;2023-05-21T06:58:39;99877.69;;;20.31;43.11
47154;BME280;32907;41.412;2.164;2023-05-21T07:01:08;100129.91;;;21.94;43.21
47154;BME280;32907;41.412;2.164;2023-05-21T07:03:37;99987.41;;;20.90;43.53
47154;BME280;32907;41.412;2.164;2023-05-21T07:06:05;99844.88;;;20.14;43.33
47154;BME280;32907;41.412;2.164;2023-05-21T07:08:35;100129.28;;;21.97;43.87
47154;BME280;32907;41.412;2.164;2023-05-21T07:11:06;100027.81;;;21.33;43.56
47154;BME280;32907;41.412;2.164;2023-05-21T07:13:36;99862.94;;;20.32;43.25
47154;BME280;32907;41.412;2.164;2023-05-21T07:16:11;100124.94;;;21.96;42.92
47154;BME280;32907;41.412;2.164;2023-05-21T07:18:41;100081.22;;;21.57;42.90
47154;BME280;32907;41.412;2.164;2023-05-21T07:21:13;99876.88;;;20.31;42.74
47154;BME280;32907;41.412;2.164;2023-05-21T07:23:47;99870.00;;;20.33;42.74
47154;BME280;32907;41.412;2.164;2023-05-21T07:26:16;99912.22;;;20.45;42.95
47154;BME280;32907;41.412;2.164;2023-05-21T07:28:47;100062.88;;;21.48;43.31
47154;BME280;32907;41.412;2.164;2023-05-21T07:31:20;99895.09;;;20.44;43.07
47154;BME280;32907;41.412;2.164;2023-05-21T07:33:52;100016.78;;;21.16;42.90
47154;BME280;32907;41.412;2.164;2023-05-21T07:36:27;99946.69;;;20.85;42.90
47154;BME280;32907;41.412;2.164;2023-05-21T07:39:01;100142.38;;;22.09;43.00
47154;BME280;32907;41.412;2.164;2023-05-21T07:41:30;100145.59;;;22.11;42.88
47154;BME280;32907;41.412;2.164;2023-05-21T07:44:13;99883.13;;;20.31;42.94
47154;BME280;32907;41.412;2.164;2023-05-21T07:51:04;100139.88;;;21.90;43.34
47154;BME280;32907;41.412;2.164;2023-05-21T07:53:40;99940.88;;;20.78;43.57
47154;BME280;32907;41.412;2.164;2023-05-21T07:56:15;100148.47;;;22.06;44.28
47154;BME280;32907;41.412;2.164;2023-05-21T07:58:48;99954.13;;;20.93;44.89
47154;BME280;32907;41.412;2.164;2023-05-21T08:01:20;99953.91;;;20.90;44.85
47154;BME280;32907;41.412;2.164;2023-05-21T08:03:49;99981.72;;;21.01;44.26
47154;BME280;32907;41.412;2.164;2023-05-21T08:06:19;99929.69;;;20.88;44.70
47154;BME280;32907;41.412;2.164;2023-05-21T08:08:49;100086.06;;;21.91;45.01
47154;BME280;32907;41.412;2.164;2023-05-21T08:11:18;99996.22;;;21.32;45.72
47154;BME280;32907;41.412;2.164;2023-05-21T08:13:47;100002.06;;;21.48;47.03
47154;BME280;32907;41.412;2.164;2023-05-21T08:16:23;100173.22;;;22.41;46.02
47154;BME280;32907;41.412;2.164;2023-05-21T08:18:51;99895.16;;;20.75;45.85
47154;BME280;32907;41.412;2.164;2023-05-21T08:21:22;100105.88;;;22.05;46.05
47154;BME280;32907;41.412;2.164;2023-05-21T08:23:54;100075.53;;;22.06;46.06
47154;BME280;32907;41.412;2.164;2023-05-21T08:26:26;100040.88;;;21.76;45.89
47154;BME280;32907;41.412;2.164;2023-05-21T08:28:55;100161.72;;;22.70;46.27
47154;BME280;32907;41.412;2.164;2023-05-21T08:31:28;99893.56;;;21.05;45.88
47154;BME280;32907;41.412;2.164;2023-05-21T08:33:56;99901.72;;;21.05;46.73
47154;BME280;32907;41.412;2.164;2023-05-21T08:36:37;99971.13;;;21.53;46.81
47154;BME280;32907;41.412;2.164;2023-05-21T08:39:28;100010.78;;;21.90;47.03
47154;BME280;32907;41.412;2.164;2023-05-21T08:42:07;99983.09;;;21.74;47.44
47154;BME280;32907;41.412;2.164;2023-05-21T08:44:42;100112.84;;;22.68;47.19
47154;BME280;32907;41.412;2.164;2023-05-21T08:47:15;100082.44;;;22.52;47.19
47154;BME280;32907;41.412;2.164;2023-05-21T08:49:47;100168.72;;;23.02;46.76
47154;BME280;32907;41.412;2.164;2023-05-21T08:52:18;99931.69;;;21.59;46.80
47154;BME280;32907;41.412;2.164;2023-05-21T08:54:48;100153.28;;;22.97;47.04
47154;BME280;32907;41.412;2.164;2023-05-21T08:57:21;99934.69;;;21.57;46.82
47154;BME280;32907;41.412;2.164;2023-05-21T08:59:51;100171.44;;;23.02;46.63
47154;BME280;32907;41.412;2.164;2023-05-21T09:02:28;100173.09;;;23.11;47.20
47154;BME280;32907;41.412;2.164;2023-05-21T09:05:03;100058.78;;;22.39;46.97
47154;BME280;32907;41.412;2.164;2023-05-21T09:10:35;100034.97;;;22.22;47.08
47154;BME280;32907;41.412;2.164;2023-05-21T09:13:11;100170.69;;;23.19;46.83
47154;BME280;32907;41.412;2.164;2023-05-21T09:15:41;99985.69;;;21.88;46.66
47154;BME280;32907;41.412;2.164;2023-05-21T09:18:14;99946.16;;;21.68;46.51
47154;BME280;32907;41.412;2.164;2023-05-21T09:20:51;100034.94;;;22.14;46.64
47154;BME280;32907;41.412;2.164;2023-05-21T09:23:21;99994.72;;;22.05;46.69
47154;BME280;32907;41.412;2.164;2023-05-21T09:25:52;100119.78;;;22.83;46.92
47154;BME280;32907;41.412;2.164;2023-05-21T09:28:30;100200.94;;;23.22;48.11
47154;BME280;32907;41.412;2.164;2023-05-21T09:33:32;100031.44;;;22.22;46.95
47154;BME280;32907;41.412;2.164;2023-05-21T09:36:02;100104.50;;;22.82;47.51
47154;BME280;32907;41.412;2.164;2023-05-21T09:38:35;100080.38;;;22.67;47.90
47154;BME280;32907;41.412;2.164;2023-05-21T09:41:04;100055.09;;;22.52;48.03
47154;BME280;32907;41.412;2.164;2023-05-21T09:43:41;99911.28;;;21.56;48.14
47154;BME280;32907;41.412;2.164;2023-05-21T09:46:14;99950.06;;;21.84;48.55
47154;BME280;32907;41.412;2.164;2023-05-21T09:48:44;99967.56;;;21.92;47.43
47154;BME280;32907;41.412;2.164;2023-05-21T09:51:21;99952.75;;;21.75;47.79
47154;BME280;32907;41.412;2.164;2023-05-21T09:53:52;99942.31;;;21.69;47.44
47154;BME280;32907;41.412;2.164;2023-05-21T09:56:26;100178.25;;;23.13;47.06
47154;BME280;32907;41.412;2.164;2023-05-21T09:59:00;100091.75;;;22.51;47.24
47154;BME280;32907;41.412;2.164;2023-05-21T10:01:33;100061.97;;;22.24;46.65
47154;BME280;32907;41.412;2.164;2023-05-21T10:04:08;100088.03;;;22.39;46.62
47154;BME280;32907;41.412;2.164;2023-05-21T10:06:42;100092.38;;;22.40;46.53
47154;BME280;32907;41.412;2.164;2023-05-21T10:09:13;100166.09;;;22.79;46.66
47154;BME280;32907;41.412;2.164;2023-05-21T10:11:46;100021.81;;;21.85;46.94
47154;BME280;32907;41.412;2.164;2023-05-21T10:14:20;100187.03;;;22.93;46.87
47154;BME280;32907;41.412;2.164;2023-05-21T10:16:51;100188.34;;;22.86;46.92
47154;BME280;32907;41.412;2.164;2023-05-21T10:19:24;100083.34;;;22.22;47.35
47154;BME280;32907;41.412;2.164;2023-05-21T10:21:53;100121.47;;;22.44;46.83
47154;BME280;32907;41.412;2.164;2023-05-21T10:24:24;99920.19;;;21.08;47.11
47154;BME280;32907;41.412;2.164;2023-05-21T10:26:53;100118.91;;;22.39;46.77
47154;BME280;32907;41.412;2.164;2023-05-21T10:29:24;100097.03;;;22.39;47.09
47154;BME280;32907;41.412;2.164;2023-05-21T10:31:54;99935.72;;;21.30;46.96
47154;BME280;32907;41.412;2.164;2023-05-21T10:34:23;100209.56;;;22.98;47.16
47154;BME280;32907;41.412;2.164;2023-05-21T10:36:54;99992.06;;;21.66;47.16
47154;BME280;32907;41.412;2.164;2023-05-21T10:39:28;100035.19;;;22.03;47.02
47154;BME280;32907;41.412;2.164;2023-05-21T10:42:17;100199.94;;;23.01;48.49
47154;BME280;32907;41.412;2.164;2023-05-21T10:56:13;100196.09;;;23.10;47.66
47154;BME280;32907;41.412;2.164;2023-05-21T11:01:58;99988.47;;;21.57;47.38
47154;BME280;32907;41.412;2.164;2023-05-21T11:04:27;100067.25;;;22.29;47.67
47154;BME280;32907;41.412;2.164;2023-05-21T11:06:59;100150.50;;;22.80;47.89
47154;BME280;32907;41.412;2.164;2023-05-21T11:09:29;100034.41;;;22.03;47.81
47154;BME280;32907;41.412;2.164;2023-05-21T11:11:59;100041.84;;;22.11;48.35
47154;BME280;32907;41.412;2.164;2023-05-21T11:14:35;99968.53;;;21.47;48.41
47154;BME280;32907;41.412;2.164;2023-05-21T11:17:16;100203.47;;;23.01;48.49
47154;BME280;32907;41.412;2.164;2023-05-21T11:20:06;99956.09;;;21.33;48.38
47154;BME280;32907;41.412;2.164;2023-05-21T11:22:35;100045.63;;;22.01;48.35
47154;BME280;32907;41.412;2.164;2023-05-21T11:25:03;100127.63;;;22.58;49.00
47154;BME280;32907;41.412;2.164;2023-05-21T11:27:43;99959.22;;;21.48;48.93
47154;BME280;32907;41.412;2.164;2023-05-21T11:30:17;100085.22;;;22.21;48.68
47154;BME280;32907;41.412;2.164;2023-05-21T11:38:15;99923.59;;;21.14;49.19
47154;BME280;32907;41.412;2.164;2023-05-21T11:40:51;99988.09;;;21.49;49.41
47154;BME280;32907;41.412;2.164;2023-05-21T11:43:26;100024.88;;;21.83;49.30
47154;BME280;32907;41.412;2.164;2023-05-21T11:45:56;100199.28;;;22.95;49.14
47154;BME280;32907;41.412;2.164;2023-05-21T11:48:38;100214.91;;;22.95;49.28
47154;BME280;32907;41.412;2.164;2023-05-21T11:51:24;99991.66;;;21.50;49.55
47154;BME280;32907;41.412;2.164;2023-05-21T11:53:55;100203.28;;;22.89;49.16
47154;BME280;32907;41.412;2.164;2023-05-21T11:56:24;100114.63;;;22.16;49.44
47154;BME280;32907;41.412;2.164;2023-05-21T11:58:59;100105.47;;;22.20;50.02
47154;BME280;32907;41.412;2.164;2023-05-21T12:01:44;100195.66;;;22.77;50.02
47154;BME280;32907;41.412;2.164;2023-05-21T12:04:22;99972.53;;;21.19;49.96
47154;BME280;32907;41.412;2.164;2023-05-21T12:06:51;100185.47;;;22.60;50.34
47154;BME280;32907;41.412;2.164;2023-05-21T12:09:21;100221.84;;;22.70;50.22
47154;BME280;32907;41.412;2.164;2023-05-21T12:11:52;100050.81;;;21.72;50.72
47154;BME280;32907;41.412;2.164;2023-05-21T12:14:25;100204.97;;;22.76;51.06
47154;BME280;32907;41.412;2.164;2023-05-21T12:16:59;100029.91;;;21.59;50.61
47154;BME280;32907;41.412;2.164;2023-05-21T12:19:33;100094.19;;;22.13;50.64
47154;BME280;32907;41.412;2.164;2023-05-21T12:22:04;100067.44;;;21.93;50.55
47154;BME280;32907;41.412;2.164;2023-05-21T12:24:35;100008.06;;;21.59;50.51
47154;BME280;32907;41.412;2.164;2023-05-21T12:27:09;100230.63;;;22.89;50.64
47154;BME280;32907;41.412;2.164;2023-05-21T12:29:48;100111.75;;;22.21;50.48
47154;BME280;32907;41.412;2.164;2023-05-21T12:32:26;100236.84;;;22.81;51.03
47154;BME280;32907;41.412;2.164;2023-05-21T12:34:58;100037.72;;;21.52;50.39
47154;BME280;32907;41.412;2.164;2023-05-21T12:37:31;99978.00;;;21.19;50.46
47154;BME280;32907;41.412;2.164;2023-05-21T12:40:01;100132.66;;;22.25;50.58
47154;BME280;32907;41.412;2.164;2023-05-21T12:42:38;100227.50;;;22.73;50.24
47154;BME280;32907;41.412;2.164;2023-05-21T12:45:08;100097.13;;;21.86;50.23
47154;BME280;32907;41.412;2.164;2023-05-21T12:47:38;99996.34;;;21.27;50.42
47154;BME280;32907;41.412;2.164;2023-05-21T12:50:11;99998.94;;;21.32;50.12
47154;BME280;32907;41.412;2.164;2023-05-21T12:52:46;100067.41;;;21.84;49.62
47154;BME280;32907;41.412;2.164;2023-05-21T12:55:16;100236.84;;;22.81;49.52
47154;BME280;32907;41.412;2.164;2023-05-21T12:58:04;99971.41;;;21.20;49.66
47154;BME280;32907;41.412;2.164;2023-05-21T13:00:36;100074.13;;;21.78;49.29
47154;BME280;32907;41.412;2.164;2023-05-21T13:03:10;99962.50;;;21.06;49.40
47154;BME280;32907;41.412;2.164;2023-05-21T13:05:42;100092.78;;;21.85;49.23
47154;BME280;32907;41.412;2.164;2023-05-21T13:08:13;99981.47;;;21.11;49.06
47154;BME280;32907;41.412;2.164;2023-05-21T13:13:15;100071.78;;;21.63;48.92
47154;BME280;32907;41.412;2.164;2023-05-21T13:15:48;99981.47;;;21.11;49.14
47154;BME280;32907;41.412;2.164;2023-05-21T13:18:16;99963.03;;;21.16;49.09
47154;BME280;32907;41.412;2.164;2023-05-21T13:20:48;100118.13;;;22.08;48.48
47154;BME280;32907;41.412;2.164;2023-05-21T13:23:25;100062.28;;;21.83;48.52
47154;BME280;32907;41.412;2.164;2023-05-21T13:25:54;100046.78;;;21.69;48.66
47154;BME280;32907;41.412;2.164;2023-05-21T13:28:23;99957.41;;;21.13;48.53
47154;BME280;32907;41.412;2.164;2023-05-21T13:30:55;100212.06;;;22.77;48.58
47154;BME280;32907;41.412;2.164;2023-05-21T13:33:24;99951.34;;;21.16;48.44
47154;BME280;32907;41.412;2.164;2023-05-21T13:35:53;100216.09;;;22.80;47.82
47154;BME280;32907;41.412;2.164;2023-05-21T13:38:22;99959.19;;;21.17;47.37
47154;BME280;32907;41.412;2.164;2023-05-21T13:40:57;100121.06;;;22.20;47.79
47154;BME280;32907;41.412;2.164;2023-05-21T13:43:26;100217.72;;;22.81;47.83
47154;BME280;32907;41.412;2.164;2023-05-21T13:46:07;100180.19;;;22.55;48.51
47154;BME280;32907;41.412;2.164;2023-05-21T13:48:39;99998.03;;;21.45;48.24
47154;BME280;32907;41.412;2.164;2023-05-21T13:51:10;100068.56;;;21.92;47.97
47154;BME280;32907;41.412;2.164;2023-05-21T13:53:47;99989.88;;;21.45;47.93
47154;BME280;32907;41.412;2.164;2023-05-21T13:56:16;100067.47;;;22.01;47.27